createdAt,value
2023-03-29T00:02:07.682Z,40.22
2023-03-29T00:06:10.180Z,40.97
2023-03-29T00:10:14.450Z,40.16
2023-03-29T00:14:18.667Z,41.02
2023-03-29T00:18:20.507Z,40.59
2023-03-29T00:22:21.981Z,40.88
2023-03-29T00:26:23.391Z,41.77
2023-03-29T00:30:27.357Z,42.22
2023-03-29T00:34:30.836Z,41.39
2023-03-29T00:38:32.874Z,41.32
2023-03-29T00:42:34.194Z,40.32
2023-03-29T00:46:35.897Z,40.34
2023-03-29T00:50:49.822Z,40.66
2023-03-29T00:54:56.015Z,40.81
2023-03-29T00:59:05.826Z,41.05
2023-03-29T01:03:24.524Z,40.91
2023-03-29T01:07:32.083Z,39.89
2023-03-29T01:11:44.103Z,40.06
2023-03-29T01:15:46.841Z,39.88
2023-03-29T01:19:58.127Z,39.64
2023-03-29T01:24:26.577Z,40.27
2023-03-29T01:28:40.746Z,40.38
2023-03-29T01:32:51.978Z,39.89
2023-03-29T01:37:05.750Z,40.01
2023-03-29T01:41:07.954Z,39.88
2023-03-29T01:45:27.160Z,39.31
2023-03-29T01:49:37.131Z,39.07
2023-03-29T01:53:38.548Z,39.62
2023-03-29T01:57:42.766Z,39.56
2023-03-29T02:01:53.929Z,38.88
2023-03-29T02:05:57.747Z,39.33
2023-03-29T02:09:59.637Z,39.08
2023-03-29T02:14:01.286Z,40.09
2023-03-29T02:18:03.891Z,38.89
2023-03-29T02:22:10.128Z,40.19
2023-03-29T02:26:14.369Z,40.16
2023-03-29T02:30:18.621Z,39.69
2023-03-29T02:34:29.582Z,39.18
2023-03-29T02:38:31.911Z,39.24
2023-03-29T02:42:34.548Z,39.26
2023-03-29T02:46:37.813Z,38.87
2023-03-29T02:50:42.453Z,40.29
2023-03-29T02:54:47.493Z,39.30
2023-03-29T02:58:48.816Z,38.54
2023-03-29T03:02:50.910Z,38.99
2023-03-29T03:06:52.632Z,39.42
2023-03-29T03:10:54.145Z,39.23
2023-03-29T03:14:55.521Z,39.17
2023-03-29T03:18:56.864Z,38.07
2023-03-29T03:22:58.443Z,38.86
2023-03-29T03:27:00.047Z,38.90
2023-03-29T03:31:01.488Z,38.69
2023-03-29T03:35:05.506Z,38.68
2023-03-29T03:39:07.239Z,38.02
2023-03-29T03:43:09.037Z,38.13
2023-03-29T03:47:11.089Z,38.80
2023-03-29T03:51:13.031Z,38.84
2023-03-29T03:55:14.599Z,40.11
2023-03-29T03:59:16.050Z,39.05
2023-03-29T04:03:18.132Z,38.72
2023-03-29T04:07:19.659Z,38.79
2023-03-29T04:11:20.989Z,38.37
2023-03-29T04:15:22.493Z,38.80
2023-03-29T04:19:23.995Z,38.48
2023-03-29T04:23:25.342Z,38.41
2023-03-29T04:27:26.743Z,38.93
2023-03-29T04:31:28.147Z,38.57
2023-03-29T04:35:29.942Z,38.22
2023-03-29T04:39:32.121Z,37.77
2023-03-29T04:43:34.480Z,38.83
2023-03-29T04:47:36.586Z,37.88
2023-03-29T04:51:38.029Z,37.68
2023-03-29T04:55:39.443Z,37.93
2023-03-29T04:59:40.792Z,38.04
2023-03-29T05:03:42.432Z,37.97
2023-03-29T05:07:44.347Z,38.27
2023-03-29T05:11:45.723Z,37.96
2023-03-29T05:15:47.690Z,37.80
2023-03-29T05:19:49.297Z,37.87
2023-03-29T05:23:50.865Z,38.53
2023-03-29T05:27:53.048Z,38.54
2023-03-29T05:31:54.771Z,38.40
2023-03-29T05:36:08.077Z,37.59
2023-03-29T05:40:10.204Z,37.12
2023-03-29T05:44:11.681Z,37.64
2023-03-29T05:48:13.405Z,37.24
2023-03-29T05:52:15.254Z,37.01
2023-03-29T05:56:17.108Z,37.39
2023-03-29T06:00:24.151Z,37.63
2023-03-29T06:04:26.238Z,36.96
2023-03-29T06:08:29.122Z,37.45
2023-03-29T06:12:30.953Z,37.11
2023-03-29T06:16:32.513Z,36.85
2023-03-29T06:20:34.037Z,37.29
2023-03-29T06:24:35.472Z,37.89
2023-03-29T06:28:36.844Z,37.22
2023-03-29T06:32:38.238Z,36.52
2023-03-29T06:36:42.262Z,36.44
2023-03-29T06:40:44.620Z,36.47
2023-03-29T06:44:46.856Z,36.03
2023-03-29T06:48:48.377Z,35.65
2023-03-29T06:52:50.480Z,36.37
2023-03-29T06:56:52.454Z,35.47
2023-03-29T07:00:53.871Z,35.97
2023-03-29T07:04:56.052Z,35.47
2023-03-29T07:08:59.753Z,35.28
2023-03-29T07:13:01.929Z,36.18
2023-03-29T07:17:04.085Z,35.89
2023-03-29T07:21:06.425Z,35.11
2023-03-29T07:25:12.257Z,34.98
2023-03-29T07:29:13.607Z,35.20
2023-03-29T07:33:15.350Z,35.46
2023-03-29T07:37:17.118Z,35.20
2023-03-29T07:41:18.448Z,34.84
2023-03-29T07:45:26.606Z,34.78
2023-03-29T07:49:29.159Z,34.37
2023-03-29T07:53:30.535Z,33.95
2023-03-29T07:57:32.077Z,34.72
2023-03-29T08:01:34.009Z,34.74
2023-03-29T08:05:41.510Z,34.57
2023-03-29T08:09:43.450Z,35.11
2023-03-29T08:13:44.790Z,33.96
2023-03-29T08:17:46.341Z,34.62
2023-03-29T08:21:48.454Z,32.58
2023-03-29T08:25:49.743Z,31.45
2023-03-29T08:29:51.663Z,31.16
2023-03-29T08:33:53.226Z,30.46
2023-03-29T08:37:54.604Z,32.39
2023-03-29T08:42:31.198Z,33.08
2023-03-29T08:46:42.317Z,34.21
2023-03-29T08:50:49.904Z,33.24
2023-03-29T08:54:55.938Z,33.78
2023-03-29T08:58:57.932Z,35.01
2023-03-29T09:03:02.358Z,34.67
2023-03-29T09:07:08.837Z,33.46
2023-03-29T09:11:26.534Z,32.94
2023-03-29T09:15:34.278Z,33.09
2023-03-29T09:19:46.786Z,33.58
2023-03-29T09:24:16.004Z,32.86
2023-03-29T09:28:31.018Z,33.05
2023-03-29T09:32:42.907Z,32.80
2023-03-29T09:37:03.030Z,33.16
2023-03-29T09:41:22.701Z,33.35
2023-03-29T09:45:24.216Z,33.17
2023-03-29T09:49:33.035Z,33.13
2023-03-29T09:53:34.595Z,33.13
2023-03-29T09:57:36.053Z,32.93
2023-03-29T10:01:41.356Z,33.07
2023-03-29T10:05:46.761Z,33.13
2023-03-29T10:09:50.993Z,33.77
2023-03-29T10:13:57.531Z,33.27
2023-03-29T10:18:10.093Z,32.89
2023-03-29T10:22:18.957Z,33.16
2023-03-29T10:26:32.513Z,32.96
2023-03-29T10:30:39.001Z,32.72
2023-03-29T10:34:41.469Z,32.19
2023-03-29T10:38:44.607Z,31.11
2023-03-29T10:42:52.064Z,30.60
2023-03-29T10:46:53.648Z,30.44
2023-03-29T10:51:00.194Z,29.61
2023-03-29T10:55:02.611Z,29.42
2023-03-29T10:59:27.296Z,28.88
2023-03-29T11:03:28.734Z,28.41
2023-03-29T11:07:41.385Z,29.69
2023-03-29T11:12:12.165Z,29.30
2023-03-29T11:16:37.949Z,29.35
2023-03-29T11:20:48.724Z,29.19
2023-03-29T11:25:13.829Z,30.36
2023-03-29T11:29:29.451Z,31.06
2023-03-29T11:33:51.372Z,30.71
2023-03-29T11:38:05.525Z,29.83
2023-03-29T11:42:16.446Z,31.31
2023-03-29T11:46:38.822Z,29.01
2023-03-29T11:50:50.508Z,28.36
2023-03-29T11:55:16.834Z,29.40
2023-03-29T11:59:28.978Z,29.40
2023-03-29T12:03:49.079Z,28.46
2023-03-29T12:08:01.036Z,28.86
2023-03-29T12:12:09.870Z,28.41
2023-03-29T12:16:22.000Z,28.43
2023-03-29T12:20:31.318Z,28.99
2023-03-29T12:24:35.425Z,29.13
2023-03-29T12:29:08.307Z,29.31
2023-03-29T12:33:32.333Z,29.16
2023-03-29T12:37:47.039Z,27.75
2023-03-29T12:41:54.140Z,27.15
2023-03-29T12:46:05.977Z,27.10
2023-03-29T12:50:28.404Z,26.54
2023-03-29T12:54:39.388Z,26.75
2023-03-29T12:58:54.014Z,27.09
2023-03-29T13:03:03.930Z,27.97
2023-03-29T13:07:27.717Z,27.56
2023-03-29T13:11:35.471Z,27.23
2023-03-29T13:15:37.431Z,27.81
2023-03-29T13:19:58.142Z,26.87
2023-03-29T13:24:19.709Z,27.27
2023-03-29T13:28:25.462Z,27.99
2023-03-29T13:32:54.679Z,27.97
2023-03-29T13:37:34.278Z,27.12
2023-03-29T13:41:38.598Z,27.05
2023-03-29T13:45:40.450Z,28.81
2023-03-29T13:49:45.423Z,28.21
2023-03-29T13:54:10.622Z,28.11
2023-03-29T13:58:23.016Z,27.87
2023-03-29T14:02:37.643Z,26.71
2023-03-29T14:06:43.446Z,27.28
2023-03-29T14:10:45.825Z,27.01
2023-03-29T14:14:58.293Z,26.94
2023-03-29T14:19:04.225Z,27.32
2023-03-29T14:23:16.209Z,26.82
2023-03-29T14:27:19.102Z,27.33
2023-03-29T14:31:26.287Z,27.19
2023-03-29T14:35:31.428Z,27.75
2023-03-29T14:39:34.631Z,28.46
2023-03-29T14:43:36.086Z,28.77
2023-03-29T14:47:40.730Z,28.38
2023-03-29T14:51:42.787Z,29.79
2023-03-29T14:55:46.710Z,28.48
2023-03-29T15:00:00.274Z,29.11
2023-03-29T15:04:07.934Z,29.13
2023-03-29T15:08:22.711Z,28.58
2023-03-29T15:12:24.961Z,28.85
2023-03-29T15:16:30.357Z,29.11
2023-03-29T15:20:34.688Z,29.82
2023-03-29T15:24:44.462Z,29.70
2023-03-29T15:28:55.517Z,29.91
2023-03-29T15:32:57.010Z,30.72
2023-03-29T15:36:59.714Z,30.82
2023-03-29T15:41:01.533Z,30.22
2023-03-29T15:45:06.181Z,30.67
2023-03-29T15:49:11.153Z,30.96
2023-03-29T15:53:15.414Z,30.39
2023-03-29T15:57:18.140Z,31.23
2023-03-29T16:01:35.607Z,30.04
2023-03-29T16:05:38.135Z,31.12
2023-03-29T16:09:39.435Z,30.53
2023-03-29T16:13:40.753Z,32.07
2023-03-29T16:17:42.164Z,32.27
2023-03-29T16:21:44.922Z,31.76
2023-03-29T16:25:46.407Z,31.87
2023-03-29T16:29:48.056Z,32.57
2023-03-29T16:33:49.469Z,32.56
2023-03-29T16:37:50.894Z,33.08
2023-03-29T16:41:52.224Z,34.19
2023-03-29T16:45:53.593Z,33.63
2023-03-29T16:49:54.991Z,34.05
2023-03-29T16:53:56.785Z,33.86
2023-03-29T16:57:58.293Z,33.89
2023-03-29T17:02:00.068Z,34.93
2023-03-29T17:06:02.335Z,36.07
2023-03-29T17:10:06.994Z,36.49
2023-03-29T17:14:08.360Z,35.13
2023-03-29T17:18:09.818Z,36.50
2023-03-29T17:22:11.245Z,36.63
2023-03-29T17:26:12.997Z,36.22
2023-03-29T17:30:14.796Z,36.23
2023-03-29T17:34:17.388Z,35.18
2023-03-29T17:38:19.358Z,37.27
2023-03-29T17:42:20.768Z,37.31
2023-03-29T17:46:22.845Z,37.36
2023-03-29T17:50:24.791Z,37.09
2023-03-29T17:54:26.172Z,37.64
2023-03-29T17:58:27.545Z,37.12
2023-03-29T18:02:28.925Z,37.83
2023-03-29T18:06:30.701Z,37.38
2023-03-29T18:10:32.533Z,37.59
2023-03-29T18:14:34.957Z,38.52
2023-03-29T18:18:37.360Z,37.90
2023-03-29T18:22:40.072Z,37.64
2023-03-29T18:26:41.453Z,38.13
2023-03-29T18:30:42.874Z,37.47
2023-03-29T18:34:44.273Z,38.52
2023-03-29T18:38:45.928Z,37.94
2023-03-29T18:42:47.269Z,37.83
2023-03-29T18:46:48.612Z,37.88
2023-03-29T18:50:51.269Z,37.63
2023-03-29T18:54:52.611Z,37.51
2023-03-29T18:58:54.559Z,37.58
2023-03-29T19:02:56.338Z,37.62
2023-03-29T19:06:59.718Z,38.31
2023-03-29T19:11:03.308Z,37.48
2023-03-29T19:15:05.292Z,37.40
2023-03-29T19:19:07.059Z,37.13
2023-03-29T19:23:08.413Z,37.84
2023-03-29T19:27:12.464Z,36.97
2023-03-29T19:31:14.144Z,37.05
2023-03-29T19:35:16.185Z,36.57
2023-03-29T19:39:17.749Z,36.98
2023-03-29T19:43:20.704Z,37.29
2023-03-29T19:47:22.068Z,36.90
2023-03-29T19:51:23.592Z,37.44
2023-03-29T19:55:25.398Z,36.36
2023-03-29T19:59:27.589Z,37.43
2023-03-29T20:03:28.939Z,37.83
2023-03-29T20:07:30.510Z,38.69
2023-03-29T20:11:31.842Z,38.18
2023-03-29T20:15:33.545Z,38.80
2023-03-29T20:19:36.642Z,38.95
2023-03-29T20:23:38.256Z,38.79
2023-03-29T20:27:40.884Z,38.56
2023-03-29T20:31:42.497Z,38.34
2023-03-29T20:35:45.290Z,38.29
2023-03-29T20:39:46.768Z,39.40
2023-03-29T20:43:48.434Z,39.22
2023-03-29T20:48:07.692Z,38.89
2023-03-29T20:52:18.802Z,39.16
2023-03-29T20:56:20.747Z,39.39
2023-03-29T21:00:22.444Z,39.04
2023-03-29T21:04:24.752Z,39.43
2023-03-29T21:08:28.596Z,39.80
2023-03-29T21:12:29.996Z,39.94
2023-03-29T21:16:34.102Z,39.07
2023-03-29T21:20:37.552Z,38.90
2023-03-29T21:24:39.328Z,39.58
2023-03-29T21:28:42.270Z,39.30
2023-03-29T21:32:43.746Z,38.69
2023-03-29T21:36:45.147Z,39.62
2023-03-29T21:40:46.510Z,39.85
2023-03-29T21:44:47.913Z,40.07
2023-03-29T21:48:49.303Z,39.02
2023-03-29T21:52:50.775Z,38.67
2023-03-29T21:56:52.309Z,39.18
2023-03-29T22:00:55.669Z,39.11
2023-03-29T22:04:57.141Z,39.21
2023-03-29T22:09:00.709Z,38.39
2023-03-29T22:13:03.167Z,38.47
2023-03-29T22:17:08.260Z,38.75
2023-03-29T22:21:14.374Z,38.01
2023-03-29T22:25:19.546Z,37.98
2023-03-29T22:29:20.981Z,38.05
2023-03-29T22:33:22.491Z,38.02
2023-03-29T22:37:23.961Z,38.07
2023-03-29T22:41:27.569Z,37.63
2023-03-29T22:45:28.925Z,37.61
2023-03-29T22:49:30.514Z,37.48
2023-03-29T22:53:32.924Z,37.09
2023-03-29T22:57:34.199Z,37.62
2023-03-29T23:01:35.693Z,37.40
2023-03-29T23:05:37.903Z,37.75
2023-03-29T23:09:39.399Z,37.77
2023-03-29T23:13:40.938Z,37.15
2023-03-29T23:17:42.515Z,37.84
2023-03-29T23:21:43.885Z,37.70
2023-03-29T23:25:47.433Z,37.00
2023-03-29T23:29:48.732Z,36.64
2023-03-29T23:33:50.441Z,36.56
2023-03-29T23:37:51.867Z,36.52
2023-03-29T23:41:53.262Z,35.96
2023-03-29T23:46:01.654Z,34.93
2023-03-29T23:50:03.769Z,35.33
2023-03-29T23:54:05.295Z,35.50
2023-03-29T23:58:07.114Z,35.40
